createdAt,value
2023-06-29T00:01:57.968Z,4.70
2023-06-29T00:04:26.342Z,4.20
2023-06-29T00:06:54.884Z,7.30
2023-06-29T00:09:24.349Z,6.20
2023-06-29T00:11:51.252Z,4.70
2023-06-29T00:14:18.182Z,4.00
2023-06-29T00:16:45.031Z,4.20
2023-06-29T00:19:15.177Z,5.20
2023-06-29T00:21:41.962Z,4.80
2023-06-29T00:24:11.855Z,5.50
2023-06-29T00:26:39.154Z,4.50
2023-06-29T00:29:06.287Z,4.30
2023-06-29T00:31:35.561Z,4.40
2023-06-29T00:34:02.456Z,5.90
2023-06-29T00:36:29.313Z,5.20
2023-06-29T00:38:56.172Z,4.90
2023-06-29T00:41:23.035Z,6.90
2023-06-29T00:43:49.886Z,4.80
2023-06-29T00:46:20.831Z,5.50
2023-06-29T00:48:48.481Z,4.30
2023-06-29T00:51:16.985Z,6.20
2023-06-29T00:53:44.683Z,6.30
2023-06-29T00:56:13.374Z,6.70
2023-06-29T00:58:41.163Z,5.70
2023-06-29T01:01:08.134Z,6.00
2023-06-29T01:03:37.028Z,4.90
2023-06-29T01:06:07.374Z,5.80
2023-06-29T01:08:40.138Z,4.90
2023-06-29T01:11:09.858Z,5.80
2023-06-29T01:13:39.169Z,9.60
2023-06-29T01:16:07.273Z,7.70
2023-06-29T01:18:35.345Z,6.90
2023-06-29T01:21:03.241Z,4.90
2023-06-29T01:23:37.412Z,7.50
2023-06-29T01:26:05.998Z,6.30
2023-06-29T01:28:38.731Z,5.30
2023-06-29T01:31:10.546Z,5.70
2023-06-29T01:33:37.528Z,9.00
2023-06-29T01:36:11.892Z,7.00
2023-06-29T01:38:48.579Z,5.70
2023-06-29T01:41:17.349Z,7.00
2023-06-29T01:43:44.721Z,7.00
2023-06-29T01:46:11.827Z,5.90
2023-06-29T01:48:40.818Z,5.00
2023-06-29T01:51:09.618Z,6.20
2023-06-29T01:53:37.597Z,6.60
2023-06-29T01:56:05.260Z,5.10
2023-06-29T01:58:32.085Z,4.30
2023-06-29T02:00:58.814Z,5.90
2023-06-29T02:03:25.695Z,6.60
2023-06-29T02:05:52.600Z,6.90
2023-06-29T02:08:19.437Z,4.50
2023-06-29T02:10:46.285Z,4.50
2023-06-29T02:13:19.404Z,4.20
2023-06-29T02:15:46.536Z,6.60
2023-06-29T02:18:13.433Z,7.10
2023-06-29T02:20:41.540Z,8.40
2023-06-29T02:23:08.346Z,6.80
2023-06-29T02:25:35.039Z,4.00
2023-06-29T02:28:01.849Z,4.30
2023-06-29T02:30:28.685Z,4.30
2023-06-29T02:32:55.562Z,6.00
2023-06-29T02:35:22.654Z,7.50
2023-06-29T02:37:49.435Z,6.70
2023-06-29T02:40:19.923Z,4.50
2023-06-29T02:42:46.726Z,4.00
2023-06-29T02:45:13.639Z,6.10
2023-06-29T02:47:40.820Z,6.00
2023-06-29T02:50:08.382Z,4.80
2023-06-29T02:52:45.754Z,5.30
2023-06-29T02:55:12.700Z,4.90
2023-06-29T02:57:40.907Z,5.50
2023-06-29T03:00:09.769Z,5.30
2023-06-29T03:02:36.822Z,4.90
2023-06-29T03:05:04.035Z,5.80
2023-06-29T03:07:31.069Z,6.70
2023-06-29T03:09:57.963Z,5.00
2023-06-29T03:12:24.902Z,8.30
2023-06-29T03:14:51.715Z,6.30
2023-06-29T03:17:18.582Z,4.10
2023-06-29T03:19:45.773Z,7.80
2023-06-29T03:22:12.680Z,7.20
2023-06-29T03:24:39.427Z,4.50
2023-06-29T03:27:07.041Z,9.30
2023-06-29T03:29:33.914Z,6.70
2023-06-29T03:32:00.690Z,3.60
2023-06-29T03:34:27.610Z,4.70
2023-06-29T03:36:54.512Z,4.10
2023-06-29T03:39:21.325Z,5.20
2023-06-29T03:41:48.169Z,4.50
2023-06-29T03:44:14.943Z,5.20
2023-06-29T03:46:41.724Z,5.60
2023-06-29T03:49:08.447Z,3.90
2023-06-29T03:51:35.275Z,4.40
2023-06-29T03:54:01.988Z,4.20
2023-06-29T03:56:29.102Z,4.50
2023-06-29T03:58:55.931Z,5.80
2023-06-29T04:01:22.745Z,5.10
2023-06-29T04:03:50.538Z,5.50
2023-06-29T04:06:17.536Z,6.70
2023-06-29T04:08:44.339Z,5.40
2023-06-29T04:11:12.756Z,8.30
2023-06-29T04:13:39.795Z,8.80
2023-06-29T04:16:06.620Z,9.50
2023-06-29T04:18:35.580Z,6.00
2023-06-29T04:21:02.434Z,9.00
2023-06-29T04:23:29.362Z,6.80
2023-06-29T04:25:56.509Z,4.90
2023-06-29T04:28:23.346Z,6.10
2023-06-29T04:30:50.644Z,5.60
2023-06-29T04:33:17.500Z,6.50
2023-06-29T04:35:45.645Z,3.20
2023-06-29T04:38:13.872Z,3.90
2023-06-29T04:40:41.268Z,4.90
2023-06-29T04:43:08.173Z,5.20
2023-06-29T04:45:35.448Z,3.80
2023-06-29T04:48:02.658Z,6.20
2023-06-29T04:50:35.989Z,4.10
2023-06-29T04:53:09.693Z,4.80
2023-06-29T04:55:40.178Z,4.50
2023-06-29T04:58:07.127Z,3.80
2023-06-29T05:00:34.456Z,4.40
2023-06-29T05:03:01.492Z,4.60
2023-06-29T05:05:29.013Z,3.90
2023-06-29T05:07:56.064Z,3.10
2023-06-29T05:10:24.043Z,3.20
2023-06-29T05:12:50.939Z,4.00
2023-06-29T05:15:17.823Z,4.90
2023-06-29T05:17:44.891Z,2.60
2023-06-29T05:20:14.664Z,3.90
2023-06-29T05:22:41.472Z,2.50
2023-06-29T05:25:09.015Z,5.50
2023-06-29T05:27:36.342Z,3.20
2023-06-29T05:30:03.619Z,3.80
2023-06-29T05:32:31.096Z,2.20
2023-06-29T05:34:58.010Z,4.20
2023-06-29T05:37:25.556Z,2.00
2023-06-29T05:39:52.433Z,2.70
2023-06-29T05:42:19.397Z,2.90
2023-06-29T05:44:46.337Z,4.20
2023-06-29T05:47:13.585Z,4.40
2023-06-29T05:49:40.822Z,2.90
2023-06-29T05:52:07.831Z,3.40
2023-06-29T05:54:34.928Z,2.80
2023-06-29T05:57:01.952Z,4.10
2023-06-29T05:59:30.527Z,4.10
2023-06-29T06:01:57.949Z,3.80
2023-06-29T06:04:28.508Z,6.30
2023-06-29T06:06:56.086Z,3.60
2023-06-29T06:09:22.935Z,2.30
2023-06-29T06:11:50.092Z,3.40
2023-06-29T06:14:16.929Z,2.70
2023-06-29T06:16:43.925Z,3.50
2023-06-29T06:19:11.174Z,3.10
2023-06-29T06:21:38.124Z,4.30
2023-06-29T06:24:05.208Z,3.90
2023-06-29T06:26:32.044Z,3.80
2023-06-29T06:28:59.005Z,3.40
2023-06-29T06:31:33.425Z,5.00
2023-06-29T06:34:01.999Z,7.60
2023-06-29T06:36:33.028Z,6.10
2023-06-29T06:39:00.080Z,2.90
2023-06-29T06:41:27.207Z,2.20
2023-06-29T06:43:54.326Z,2.70
2023-06-29T06:46:21.283Z,2.40
2023-06-29T06:48:48.780Z,2.20
2023-06-29T06:51:15.998Z,2.50
2023-06-29T06:53:43.059Z,2.20
2023-06-29T06:56:10.023Z,4.10
2023-06-29T06:58:36.941Z,1.80
2023-06-29T07:01:03.894Z,3.20
2023-06-29T07:03:30.860Z,1.80
2023-06-29T07:05:58.599Z,1.80
2023-06-29T07:08:25.717Z,2.10
2023-06-29T07:10:52.760Z,2.20
2023-06-29T07:13:19.704Z,1.60
2023-06-29T07:15:47.333Z,1.80
2023-06-29T07:18:14.269Z,1.60
2023-06-29T07:25:41.454Z,1.60
2023-06-29T07:28:08.648Z,1.60
2023-06-29T07:30:36.255Z,2.30
2023-06-29T07:33:03.440Z,3.80
2023-06-29T07:35:30.420Z,1.90
2023-06-29T07:37:57.241Z,1.70
2023-06-29T07:40:24.790Z,2.20
2023-06-29T07:42:51.664Z,1.20
2023-06-29T07:45:18.423Z,2.00
2023-06-29T07:47:45.602Z,2.10
2023-06-29T07:50:12.616Z,3.40
2023-06-29T07:52:39.408Z,1.50
2023-06-29T07:55:06.607Z,1.90
2023-06-29T08:00:04.610Z,1.20
2023-06-29T08:02:46.204Z,1.20
2023-06-29T08:07:44.589Z,1.10
2023-06-29T08:10:11.654Z,0.40
2023-06-29T08:12:38.576Z,2.00
2023-06-29T08:15:05.883Z,1.20
2023-06-29T08:17:32.725Z,0.60
2023-06-29T08:19:59.570Z,1.30
2023-06-29T08:22:26.957Z,1.00
2023-06-29T08:24:53.808Z,0.70
2023-06-29T08:27:20.708Z,1.40
2023-06-29T08:29:48.423Z,0.60
2023-06-29T08:32:15.414Z,2.20
2023-06-29T08:34:42.424Z,0.60
2023-06-29T08:37:09.313Z,0.70
2023-06-29T08:39:36.270Z,1.90
2023-06-29T08:42:06.819Z,0.70
2023-06-29T08:44:35.373Z,0.60
2023-06-29T08:47:04.098Z,1.40
2023-06-29T08:49:38.353Z,3.80
2023-06-29T08:52:08.098Z,1.00
2023-06-29T08:54:35.816Z,1.50
2023-06-29T08:57:05.741Z,0.80
2023-06-29T08:59:32.991Z,3.20
2023-06-29T09:02:00.202Z,1.40
2023-06-29T09:04:27.192Z,1.50
2023-06-29T09:06:54.109Z,1.00
2023-06-29T09:09:21.087Z,2.30
2023-06-29T09:11:48.248Z,0.90
2023-06-29T09:14:15.050Z,1.50
2023-06-29T09:16:58.666Z,0.50
2023-06-29T09:19:26.082Z,2.00
2023-06-29T09:21:52.971Z,0.80
2023-06-29T09:24:20.028Z,1.40
2023-06-29T09:26:53.629Z,0.90
2023-06-29T09:31:58.091Z,0.50
2023-06-29T09:34:27.336Z,1.60
2023-06-29T09:36:55.435Z,1.30
2023-06-29T09:39:22.866Z,0.90
2023-06-29T09:41:55.555Z,0.90
2023-06-29T09:44:26.822Z,1.60
2023-06-29T09:49:50.512Z,0.60
2023-06-29T09:52:19.245Z,1.30
2023-06-29T09:54:46.322Z,1.30
2023-06-29T09:57:13.256Z,0.70
2023-06-29T09:59:41.634Z,0.80
2023-06-29T10:02:11.484Z,1.00
2023-06-29T10:04:42.479Z,0.80
2023-06-29T10:07:15.002Z,0.70
2023-06-29T10:09:47.075Z,1.40
2023-06-29T10:12:14.849Z,1.90
2023-06-29T10:14:45.760Z,1.10
2023-06-29T10:17:20.432Z,3.00
2023-06-29T10:19:49.589Z,0.70
2023-06-29T10:22:18.532Z,1.20
2023-06-29T10:24:54.594Z,1.70
2023-06-29T10:27:29.448Z,0.90
2023-06-29T10:29:56.386Z,1.70
2023-06-29T10:32:32.345Z,2.10
2023-06-29T10:35:08.369Z,1.00
2023-06-29T10:37:36.564Z,2.40
2023-06-29T10:40:12.690Z,0.70
2023-06-29T10:42:39.911Z,2.90
2023-06-29T10:45:09.678Z,0.80
2023-06-29T10:47:40.331Z,1.10
2023-06-29T10:50:10.314Z,0.80
2023-06-29T10:52:42.829Z,0.80
2023-06-29T10:55:37.982Z,1.20
2023-06-29T10:58:29.554Z,1.20
2023-06-29T11:00:56.414Z,2.00
2023-06-29T11:03:25.152Z,1.90
2023-06-29T11:05:54.377Z,1.20
2023-06-29T11:08:22.754Z,2.20
2023-06-29T11:10:51.072Z,1.50
2023-06-29T11:13:22.184Z,1.60
2023-06-29T11:15:55.235Z,3.90
2023-06-29T11:18:23.216Z,1.60
2023-06-29T11:20:50.344Z,1.50
2023-06-29T11:23:17.834Z,1.20
2023-06-29T11:25:44.868Z,2.00
2023-06-29T11:28:15.543Z,1.10
2023-06-29T11:30:42.818Z,0.70
2023-06-29T11:36:01.520Z,1.30
2023-06-29T11:38:28.795Z,1.90
2023-06-29T11:41:06.445Z,1.50
2023-06-29T11:43:34.288Z,1.40
2023-06-29T11:46:01.925Z,1.60
2023-06-29T11:48:30.366Z,1.40
2023-06-29T11:51:00.869Z,2.70
2023-06-29T11:53:28.931Z,2.50
2023-06-29T11:55:56.436Z,3.40
2023-06-29T11:58:23.303Z,1.60
2023-06-29T12:00:57.452Z,2.10
2023-06-29T12:03:24.770Z,2.00
2023-06-29T12:05:53.585Z,2.50
2023-06-29T12:08:22.114Z,2.10
2023-06-29T12:10:49.021Z,2.00
2023-06-29T12:13:15.894Z,2.50
2023-06-29T12:17:59.123Z,1.60
2023-06-29T12:18:36.396Z,3.50
2023-06-29T12:21:05.111Z,1.70
2023-06-29T12:23:32.450Z,2.50
2023-06-29T12:26:00.305Z,5.20
2023-06-29T12:28:27.374Z,1.60
2023-06-29T12:30:54.273Z,4.00
2023-06-29T12:33:21.630Z,1.60
2023-06-29T12:35:48.617Z,2.00
2023-06-29T12:38:16.008Z,1.70
2023-06-29T12:40:42.871Z,2.00
2023-06-29T12:43:09.695Z,2.40
2023-06-29T12:45:36.581Z,2.50
2023-06-29T12:48:04.373Z,4.00
2023-06-29T12:50:32.548Z,5.90
2023-06-29T12:52:59.946Z,2.10
2023-06-29T12:55:26.964Z,1.80
2023-06-29T12:57:53.775Z,2.20
2023-06-29T13:00:21.351Z,2.00
2023-06-29T13:02:52.712Z,1.70
2023-06-29T13:05:19.719Z,2.10
2023-06-29T13:07:46.569Z,2.30
2023-06-29T13:10:13.465Z,2.40
2023-06-29T13:12:42.315Z,2.10
2023-06-29T13:15:09.755Z,2.20
2023-06-29T13:17:36.630Z,1.80
2023-06-29T13:20:03.972Z,1.30
2023-06-29T13:22:32.468Z,1.80
2023-06-29T13:25:00.955Z,1.40
2023-06-29T13:27:27.872Z,2.30
2023-06-29T13:29:54.815Z,2.90
2023-06-29T13:32:21.748Z,4.20
2023-06-29T13:34:48.936Z,1.70
2023-06-29T13:37:16.354Z,1.40
2023-06-29T13:39:45.096Z,1.30
2023-06-29T13:42:15.999Z,4.30
2023-06-29T13:44:44.180Z,2.00
2023-06-29T13:47:17.778Z,2.40
2023-06-29T13:49:45.002Z,2.10
2023-06-29T13:52:14.097Z,3.40
2023-06-29T13:54:41.512Z,2.70
2023-06-29T13:57:08.641Z,3.30
2023-06-29T13:59:35.641Z,2.50
2023-06-29T14:02:02.895Z,1.30
2023-06-29T14:04:29.945Z,2.40
2023-06-29T14:06:57.016Z,2.40
2023-06-29T14:09:25.576Z,1.90
2023-06-29T14:11:55.773Z,2.60
2023-06-29T14:14:22.556Z,3.00
2023-06-29T14:16:49.771Z,1.30
2023-06-29T14:19:16.799Z,2.00
2023-06-29T14:21:44.228Z,1.60
2023-06-29T14:24:11.093Z,3.00
2023-06-29T14:26:37.902Z,2.90
2023-06-29T14:29:04.987Z,1.60
2023-06-29T14:31:32.139Z,2.80
2023-06-29T14:33:59.641Z,2.40
2023-06-29T14:36:26.787Z,1.80
2023-06-29T14:38:53.659Z,2.40
2023-06-29T14:41:20.495Z,3.30
2023-06-29T14:43:47.395Z,3.40
2023-06-29T14:46:14.280Z,3.00
2023-06-29T14:48:41.273Z,3.10
2023-06-29T14:51:09.067Z,3.80
2023-06-29T14:53:35.990Z,2.70
2023-06-29T14:56:07.719Z,3.40
2023-06-29T14:58:35.497Z,7.20
2023-06-29T15:01:02.825Z,2.80
2023-06-29T15:03:29.965Z,3.20
2023-06-29T15:05:57.252Z,4.00
2023-06-29T15:08:24.285Z,2.70
2023-06-29T15:10:51.176Z,4.80
2023-06-29T15:13:18.292Z,3.30
2023-06-29T15:15:45.557Z,4.50
2023-06-29T15:18:12.882Z,3.70
2023-06-29T15:20:40.142Z,3.90
2023-06-29T15:23:06.978Z,3.30
2023-06-29T15:25:34.201Z,4.20
2023-06-29T15:28:02.010Z,4.80
2023-06-29T15:30:28.896Z,3.20
2023-06-29T15:32:56.068Z,3.30
2023-06-29T15:35:23.763Z,4.30
2023-06-29T15:37:52.581Z,8.10
2023-06-29T15:40:20.261Z,3.50
2023-06-29T15:42:47.854Z,5.10
2023-06-29T15:45:14.925Z,3.80
2023-06-29T15:47:42.139Z,17.90
2023-06-29T15:50:09.562Z,4.00
2023-06-29T15:52:36.540Z,4.30
2023-06-29T15:55:03.917Z,4.70
2023-06-29T15:57:31.820Z,4.10
2023-06-29T16:00:00.533Z,4.00
2023-06-29T16:02:27.914Z,3.00
2023-06-29T16:04:54.761Z,3.60
2023-06-29T16:07:24.886Z,3.70
2023-06-29T16:09:52.026Z,3.20
2023-06-29T16:12:18.967Z,4.70
2023-06-29T16:14:45.862Z,3.90
2023-06-29T16:17:12.862Z,3.10
2023-06-29T16:19:39.792Z,2.40
2023-06-29T16:22:07.390Z,5.50
2023-06-29T16:24:34.286Z,5.10
2023-06-29T16:27:01.247Z,2.80
2023-06-29T16:29:28.108Z,3.00
2023-06-29T16:31:55.147Z,3.30
2023-06-29T16:34:22.135Z,2.70
2023-06-29T16:36:49.065Z,2.80
2023-06-29T16:39:16.013Z,4.10
2023-06-29T16:41:42.982Z,3.20
2023-06-29T16:44:10.860Z,4.00
2023-06-29T16:46:38.095Z,7.30
2023-06-29T16:49:05.363Z,4.60
2023-06-29T16:51:32.346Z,4.40
2023-06-29T16:53:59.326Z,6.40
2023-06-29T16:56:29.312Z,9.00
2023-06-29T16:58:56.425Z,9.30
2023-06-29T17:01:23.989Z,8.70
2023-06-29T17:03:51.124Z,7.10
2023-06-29T17:06:18.133Z,8.30
2023-06-29T17:08:45.076Z,6.50
2023-06-29T17:11:12.248Z,6.40
2023-06-29T17:13:39.245Z,4.90
2023-06-29T17:16:07.422Z,4.80
2023-06-29T17:18:37.535Z,9.60
2023-06-29T17:21:05.095Z,6.30
2023-06-29T17:23:32.081Z,4.00
2023-06-29T17:25:59.094Z,3.70
2023-06-29T17:28:26.100Z,4.30
2023-06-29T17:30:53.819Z,4.80
2023-06-29T17:33:21.101Z,3.70
2023-06-29T17:35:48.356Z,4.30
2023-06-29T17:38:15.762Z,12.40
2023-06-29T17:40:42.741Z,3.90
2023-06-29T17:43:09.591Z,4.30
2023-06-29T17:45:36.573Z,3.90
2023-06-29T17:48:04.138Z,4.30
2023-06-29T17:50:31.001Z,10.40
2023-06-29T17:52:57.889Z,4.70
2023-06-29T17:55:24.728Z,3.90
2023-06-29T17:57:51.618Z,3.40
2023-06-29T18:00:18.971Z,4.30
2023-06-29T18:02:46.087Z,4.40
2023-06-29T18:05:13.146Z,4.20
2023-06-29T18:07:40.096Z,5.50
2023-06-29T18:10:07.899Z,6.50
2023-06-29T18:12:36.373Z,4.90
2023-06-29T18:15:07.167Z,5.30
2023-06-29T18:17:35.017Z,6.00
2023-06-29T18:20:01.985Z,8.50
2023-06-29T18:22:30.811Z,3.60
2023-06-29T18:24:59.347Z,6.60
2023-06-29T18:27:29.855Z,11.20
2023-06-29T18:29:56.702Z,6.70
2023-06-29T18:32:23.775Z,9.40
2023-06-29T18:34:50.769Z,9.50
2023-06-29T18:37:17.588Z,6.40
2023-06-29T18:39:44.368Z,9.20
2023-06-29T18:42:11.243Z,6.50
2023-06-29T18:44:38.541Z,7.20
2023-06-29T18:47:06.533Z,7.40
2023-06-29T18:49:49.703Z,7.70
2023-06-29T18:52:18.801Z,9.30
2023-06-29T18:54:45.831Z,8.50
2023-06-29T18:57:12.809Z,6.50
2023-06-29T18:59:39.909Z,6.70
2023-06-29T19:02:06.904Z,6.70
2023-06-29T19:04:33.868Z,8.30
2023-06-29T19:07:01.186Z,7.20
2023-06-29T19:09:28.672Z,8.30
2023-06-29T19:11:56.851Z,9.50
2023-06-29T19:14:23.680Z,4.90
2023-06-29T19:16:50.553Z,5.70
2023-06-29T19:19:17.824Z,5.10
2023-06-29T19:21:49.205Z,5.00
2023-06-29T19:24:17.674Z,5.10
2023-06-29T19:26:44.970Z,6.30
2023-06-29T19:29:12.814Z,5.70
2023-06-29T19:31:41.899Z,6.50
2023-06-29T19:34:09.775Z,6.80
2023-06-29T19:36:36.728Z,5.80
2023-06-29T19:39:03.509Z,6.10
2023-06-29T19:41:30.284Z,7.70
2023-06-29T19:43:57.134Z,8.80
2023-06-29T19:46:24.444Z,6.20
2023-06-29T19:48:51.530Z,4.00
2023-06-29T19:51:18.504Z,10.50
2023-06-29T19:53:45.253Z,4.30
2023-06-29T19:56:12.270Z,4.30
2023-06-29T19:58:39.112Z,5.00
2023-06-29T20:01:05.896Z,4.10
2023-06-29T20:03:32.790Z,5.00
2023-06-29T20:05:59.851Z,4.60
2023-06-29T20:08:27.049Z,4.40
2023-06-29T20:10:53.830Z,4.70
2023-06-29T20:13:20.818Z,5.00
2023-06-29T20:15:48.019Z,6.10
2023-06-29T20:18:15.236Z,7.00
2023-06-29T20:20:42.231Z,4.10
2023-06-29T20:23:11.293Z,6.80
2023-06-29T20:25:38.148Z,5.80
2023-06-29T20:28:05.038Z,3.60
2023-06-29T20:30:31.851Z,4.60
2023-06-29T20:32:58.807Z,5.30
2023-06-29T20:35:25.731Z,4.40
2023-06-29T20:37:52.827Z,6.70
2023-06-29T20:40:19.692Z,3.30
2023-06-29T20:42:46.525Z,6.30
2023-06-29T20:45:13.436Z,4.20
2023-06-29T20:47:41.056Z,5.70
2023-06-29T20:50:08.413Z,4.40
2023-06-29T20:52:35.330Z,3.10
2023-06-29T20:55:02.285Z,3.40
2023-06-29T20:57:29.151Z,4.50
2023-06-29T20:59:56.130Z,3.50
2023-06-29T21:02:23.421Z,5.50
2023-06-29T21:04:50.526Z,5.00
2023-06-29T21:07:17.393Z,3.50
2023-06-29T21:09:44.329Z,5.00
2023-06-29T21:12:11.790Z,4.40
2023-06-29T21:14:38.883Z,5.70
2023-06-29T21:17:06.102Z,5.80
2023-06-29T21:19:33.228Z,6.00
2023-06-29T21:22:00.230Z,4.70
2023-06-29T21:24:27.384Z,4.60
2023-06-29T21:26:54.773Z,4.90
2023-06-29T21:29:40.688Z,5.70
2023-06-29T21:32:13.570Z,3.70
2023-06-29T21:34:41.611Z,4.10
2023-06-29T21:37:09.131Z,4.90
2023-06-29T21:39:35.965Z,6.00
2023-06-29T21:42:03.000Z,5.00
2023-06-29T21:44:30.162Z,3.70
2023-06-29T21:46:57.501Z,7.80
2023-06-29T21:49:24.407Z,4.20
2023-06-29T21:51:51.633Z,4.70
2023-06-29T21:54:18.548Z,6.40
2023-06-29T21:56:45.392Z,4.60
2023-06-29T21:59:12.234Z,5.20
2023-06-29T22:01:38.982Z,4.40
2023-06-29T22:04:05.998Z,3.80
2023-06-29T22:06:32.950Z,3.60
2023-06-29T22:09:03.522Z,4.10
2023-06-29T22:11:30.860Z,3.30
2023-06-29T22:13:57.740Z,4.30
2023-06-29T22:16:25.326Z,4.20
2023-06-29T22:18:52.518Z,3.40
2023-06-29T22:21:22.429Z,3.60
2023-06-29T22:23:50.683Z,3.70
2023-06-29T22:26:18.395Z,3.70
2023-06-29T22:28:45.577Z,4.30
2023-06-29T22:31:14.745Z,2.90
2023-06-29T22:33:41.545Z,5.20
2023-06-29T22:36:08.596Z,3.20
2023-06-29T22:38:35.698Z,3.30
2023-06-29T22:41:05.105Z,3.20
2023-06-29T22:43:33.103Z,3.40
2023-06-29T22:45:59.962Z,4.20
2023-06-29T22:48:26.928Z,4.50
2023-06-29T22:50:56.149Z,4.70
2023-06-29T22:53:23.764Z,4.00
2023-06-29T22:55:50.573Z,3.20
2023-06-29T22:58:24.656Z,3.20
2023-06-29T23:00:55.293Z,3.70
2023-06-29T23:03:23.030Z,2.60
2023-06-29T23:05:50.345Z,4.90
2023-06-29T23:08:17.752Z,6.60
2023-06-29T23:10:49.477Z,5.90
2023-06-29T23:13:16.560Z,4.10
2023-06-29T23:15:44.606Z,6.80
2023-06-29T23:18:12.651Z,4.90
2023-06-29T23:20:46.476Z,5.90
2023-06-29T23:23:14.174Z,7.10
2023-06-29T23:25:42.470Z,3.50
2023-06-29T23:28:09.474Z,3.70
2023-06-29T23:30:36.305Z,5.10
2023-06-29T23:33:03.585Z,6.50
2023-06-29T23:35:30.628Z,4.30
2023-06-29T23:37:57.606Z,4.30
2023-06-29T23:40:26.231Z,4.00
2023-06-29T23:42:53.660Z,4.40
2023-06-29T23:45:22.088Z,4.40
2023-06-29T23:47:49.135Z,5.70
2023-06-29T23:50:16.126Z,5.10
2023-06-29T23:52:43.206Z,3.50
2023-06-29T23:55:12.048Z,5.10
2023-06-29T23:57:39.565Z,5.40
